createdAt,value
2022-10-11T00:00:37.152Z,99351.56
2022-10-11T00:03:03.947Z,99360.72
2022-10-11T00:05:30.892Z,99357.38
2022-10-11T00:07:57.471Z,99357.38
2022-10-11T00:10:24.317Z,99356.75
2022-10-11T00:12:52.507Z,99359.69
2022-10-11T00:15:21.607Z,99362.56
2022-10-11T00:17:48.707Z,99357.78
2022-10-11T00:20:15.206Z,99357.38
2022-10-11T00:22:42.458Z,99362.38
2022-10-11T00:25:10.483Z,99358.63
2022-10-11T00:27:37.568Z,99362.38
2022-10-11T00:30:06.195Z,99354.47
2022-10-11T00:32:34.156Z,99350.47
2022-10-11T00:35:06.275Z,99346.72
2022-10-11T00:37:34.183Z,99356.50
2022-10-11T00:40:00.678Z,99348.59
2022-10-11T00:42:27.346Z,99345.28
2022-10-11T00:45:31.663Z,99345.88
2022-10-11T00:48:04.969Z,99347.75
2022-10-11T00:50:33.862Z,99336.31
2022-10-11T00:53:03.790Z,99333.81
2022-10-11T00:55:33.371Z,99340.69
2022-10-11T00:58:00.143Z,99342.78
2022-10-11T01:00:26.746Z,99340.06
2022-10-11T01:02:54.514Z,99342.78
2022-10-11T01:05:29.987Z,99346.69
2022-10-11T01:07:59.074Z,99338.56
2022-10-11T01:10:26.095Z,99336.66
2022-10-11T01:13:05.587Z,99331.47
2022-10-11T01:15:42.535Z,99329.38
2022-10-11T01:18:22.198Z,99335.84
2022-10-11T01:21:14.601Z,99334.19
2022-10-11T01:24:22.476Z,99328.72
2022-10-11T01:27:02.539Z,99333.09
2022-10-11T01:29:53.921Z,99331.22
2022-10-11T01:32:45.010Z,99321.25
2022-10-11T01:35:37.914Z,99320.63
2022-10-11T01:38:11.351Z,99321.00
2022-10-11T01:40:44.047Z,99325.56
2022-10-11T01:43:10.679Z,99310.16
2022-10-11T01:45:37.420Z,99318.47
2022-10-11T01:48:10.542Z,99306.59
2022-10-11T01:50:37.076Z,99324.28
2022-10-11T01:53:35.875Z,99316.19
2022-10-11T01:56:06.186Z,99312.63
2022-10-11T01:59:00.975Z,99310.09
2022-10-11T02:01:47.079Z,99292.63
2022-10-11T02:04:33.839Z,99306.81
2022-10-11T02:07:23.526Z,99296.81
2022-10-11T02:09:56.669Z,99292.66
2022-10-11T02:12:28.167Z,99287.25
2022-10-11T02:14:56.647Z,99294.50
2022-10-11T02:17:27.654Z,99280.13
2022-10-11T02:19:56.841Z,99278.25
2022-10-11T02:22:28.054Z,99288.88
2022-10-11T02:24:57.549Z,99286.59
2022-10-11T02:27:26.923Z,99291.78
2022-10-11T02:29:54.815Z,99290.13
2022-10-11T02:32:23.657Z,99297.63
2022-10-11T02:34:55.439Z,99303.84
2022-10-11T02:37:51.150Z,99308.22
2022-10-11T02:40:21.121Z,99307.19
2022-10-11T02:43:03.393Z,99297.78
2022-10-11T02:45:48.907Z,99292.16
2022-10-11T02:48:15.747Z,99299.44
2022-10-11T02:50:42.370Z,99299.66
2022-10-11T02:53:09.652Z,99299.66
2022-10-11T02:55:36.283Z,99296.91
2022-10-11T02:58:02.925Z,99301.06
2022-10-11T03:00:29.962Z,99300.66
2022-10-11T03:02:56.550Z,99294.22
2022-10-11T03:05:23.058Z,99298.16
2022-10-11T03:07:49.568Z,99298.16
2022-10-11T03:10:16.146Z,99299.19
2022-10-11T03:12:42.788Z,99300.84
2022-10-11T03:15:09.723Z,99295.00
2022-10-11T03:17:37.315Z,99298.53
2022-10-11T03:20:06.048Z,99296.03
2022-10-11T03:22:32.590Z,99298.53
2022-10-11T03:25:03.700Z,99302.28
2022-10-11T03:27:31.597Z,99293.13
2022-10-11T03:29:58.135Z,99298.94
2022-10-11T03:32:24.896Z,99295.41
2022-10-11T03:34:51.440Z,99289.16
2022-10-11T03:37:18.205Z,99292.28
2022-10-11T03:39:45.637Z,99285.84
2022-10-11T03:42:13.172Z,99293.75
2022-10-11T03:44:39.829Z,99287.91
2022-10-11T03:47:06.383Z,99296.66
2022-10-11T03:49:32.865Z,99283.75
2022-10-11T03:51:59.362Z,99286.03
2022-10-11T03:54:26.203Z,99286.25
2022-10-11T03:56:53.014Z,99283.91
2022-10-11T03:59:19.549Z,99288.50
2022-10-11T04:01:46.126Z,99292.03
2022-10-11T04:04:12.730Z,99287.88
2022-10-11T04:06:39.258Z,99291.19
2022-10-11T04:09:05.761Z,99284.34
2022-10-11T04:11:32.685Z,99292.66
2022-10-11T04:13:59.263Z,99291.56
2022-10-11T04:16:25.889Z,99296.53
2022-10-11T04:18:52.512Z,99294.44
2022-10-11T04:21:19.070Z,99293.34
2022-10-11T04:23:45.586Z,99297.31
2022-10-11T04:26:12.123Z,99289.81
2022-10-11T04:28:38.642Z,99292.28
2022-10-11T04:31:06.572Z,99286.66
2022-10-11T04:33:33.095Z,99295.59
2022-10-11T04:35:59.702Z,99288.13
2022-10-11T04:38:26.230Z,99297.28
2022-10-11T04:40:52.791Z,99289.38
2022-10-11T04:43:19.584Z,99292.72
2022-10-11T04:45:46.143Z,99294.78
2022-10-11T04:48:13.931Z,99297.69
2022-10-11T04:50:40.474Z,99302.06
2022-10-11T04:53:07.540Z,99301.66
2022-10-11T04:55:34.143Z,99284.81
2022-10-11T04:58:02.074Z,99286.47
2022-10-11T05:00:28.626Z,99297.28
2022-10-11T05:02:55.231Z,99288.34
2022-10-11T05:05:21.773Z,99287.34
2022-10-11T05:07:48.359Z,99300.03
2022-10-11T05:10:14.984Z,99298.38
2022-10-11T05:12:41.498Z,99298.94
2022-10-11T05:15:08.702Z,99301.44
2022-10-11T05:17:35.652Z,99296.44
2022-10-11T05:20:02.153Z,99296.81
2022-10-11T05:22:28.717Z,99298.69
2022-10-11T05:24:55.378Z,99300.34
2022-10-11T05:27:21.886Z,99293.47
2022-10-11T05:29:48.400Z,99296.66
2022-10-11T05:32:14.925Z,99294.94
2022-10-11T05:34:41.456Z,99291.25
2022-10-11T05:37:07.973Z,99300.19
2022-10-11T05:39:34.489Z,99290.38
2022-10-11T05:42:00.990Z,99296.88
2022-10-11T05:44:27.639Z,99297.91
2022-10-11T05:46:54.135Z,99304.78
2022-10-11T05:49:20.659Z,99307.47
2022-10-11T05:51:47.245Z,99316.06
2022-10-11T05:54:13.792Z,99313.75
2022-10-11T05:56:40.320Z,99312.72
2022-10-11T05:59:06.855Z,99322.50
2022-10-11T06:01:33.497Z,99314.53
2022-10-11T06:04:00.057Z,99332.63
2022-10-11T06:06:26.609Z,99338.66
2022-10-11T06:08:53.134Z,99339.06
2022-10-11T06:11:22.531Z,99344.38
2022-10-11T06:13:49.113Z,99332.94
2022-10-11T06:16:16.251Z,99346.03
2022-10-11T06:18:42.763Z,99339.53
2022-10-11T06:21:09.391Z,99332.00
2022-10-11T06:23:36.011Z,99344.78
2022-10-11T06:26:06.874Z,99342.91
2022-10-11T06:28:35.381Z,99347.28
2022-10-11T07:43:29.544Z,99391.84
2022-10-11T07:46:18.253Z,99300.63
2022-10-11T07:48:44.846Z,99360.84
2022-10-11T07:51:17.396Z,99358.59
2022-10-11T07:53:48.812Z,99356.06
2022-10-11T08:15:48.943Z,99343.94
2022-10-11T08:18:15.558Z,99343.69
2022-10-11T08:20:42.108Z,99340.59
2022-10-11T08:23:09.439Z,99346.13
2022-10-11T08:25:40.235Z,99348.94
2022-10-11T08:28:07.523Z,99352.00
2022-10-11T08:30:34.494Z,99349.16
2022-10-11T08:33:04.991Z,99344.88
2022-10-11T08:35:34.194Z,99354.97
2022-10-11T08:38:00.690Z,99352.72
2022-10-11T08:40:30.377Z,99350.25
2022-10-11T08:43:14.042Z,99348.94
2022-10-11T08:45:50.592Z,99350.34
2022-10-11T08:48:20.222Z,99352.00
2022-10-11T08:50:47.908Z,99354.47
2022-10-11T08:53:39.923Z,99349.88
2022-10-11T08:56:07.150Z,99346.28
2022-10-11T08:58:49.393Z,99341.06
2022-10-11T09:01:18.923Z,99348.44
2022-10-11T09:03:47.135Z,99343.31
2022-10-11T09:06:43.864Z,99346.06
2022-10-11T09:09:27.649Z,99339.59
2022-10-11T09:12:06.313Z,99335.53
2022-10-11T09:15:22.175Z,99339.13
2022-10-11T09:17:54.530Z,99330.69
2022-10-11T09:20:39.747Z,99336.88
2022-10-11T09:23:47.930Z,99323.94
2022-10-11T09:26:23.018Z,99332.16
2022-10-11T09:29:06.814Z,99335.13
2022-10-11T09:31:33.466Z,99324.59
2022-10-11T09:34:08.737Z,99327.50
2022-10-11T09:37:00.533Z,99332.72
2022-10-11T09:39:37.488Z,99328.78
2022-10-11T09:42:05.822Z,99328.41
2022-10-11T09:44:46.907Z,99318.91
2022-10-11T09:47:18.676Z,99315.94
2022-10-11T09:49:49.539Z,99312.63
2022-10-11T09:52:18.494Z,99318.03
2022-10-11T09:54:47.867Z,99319.34
2022-10-11T09:57:20.834Z,99317.09
2022-10-11T10:00:11.941Z,99319.13
2022-10-11T10:02:55.660Z,99301.25
2022-10-11T10:05:23.150Z,99316.66
2022-10-11T10:08:09.928Z,99311.13
2022-10-11T10:10:42.807Z,99311.88
2022-10-11T10:13:25.820Z,99316.84
2022-10-11T10:15:55.852Z,99307.69
2022-10-11T15:39:12.874Z,99186.22
2022-10-11T15:41:39.430Z,99181.88
2022-10-11T15:44:05.928Z,99180.75
2022-10-11T15:46:32.459Z,99168.69
2022-10-11T15:49:02.178Z,99183.13
2022-10-11T15:51:31.090Z,99185.66
2022-10-11T15:53:57.623Z,99182.91
2022-10-11T15:56:24.168Z,99177.44
2022-10-11T15:58:50.717Z,99174.72
2022-10-11T16:03:30.076Z,99180.78
2022-10-11T16:06:01.154Z,99182.19
2022-10-11T16:08:31.376Z,99183.84
2022-10-11T16:10:58.846Z,99185.97
2022-10-11T16:14:29.398Z,99181.09
2022-10-11T16:16:55.986Z,99188.34
2022-10-11T16:19:22.630Z,99187.88
2022-10-11T16:21:49.115Z,99184.28
2022-10-11T16:24:15.622Z,99176.50
2022-10-11T16:26:42.122Z,99188.78
2022-10-11T16:29:08.642Z,99187.16
2022-10-11T16:31:35.142Z,99193.81
2022-10-11T16:34:01.930Z,99208.94
2022-10-11T16:36:40.660Z,99199.25
2022-10-11T16:39:16.389Z,99199.44
2022-10-11T16:41:42.953Z,99199.41
2022-10-11T16:44:18.315Z,99208.84
2022-10-11T16:46:49.146Z,99205.03
2022-10-11T16:49:21.930Z,99210.97
2022-10-11T16:51:49.255Z,99211.94
2022-10-11T16:54:20.624Z,99217.91
2022-10-11T16:56:48.760Z,99217.00
2022-10-11T16:59:15.485Z,99215.69
2022-10-11T17:01:42.391Z,99227.69
2022-10-11T17:04:09.779Z,99206.97
2022-10-11T17:06:36.353Z,99225.50
2022-10-11T17:09:03.911Z,99227.94
2022-10-11T17:11:30.535Z,99238.72
2022-10-11T17:13:57.124Z,99236.09
2022-10-11T17:16:23.903Z,99228.38
2022-10-11T17:18:50.910Z,99237.84
2022-10-11T17:21:18.671Z,99243.56
2022-10-11T17:23:45.384Z,99244.28
2022-10-11T17:26:24.741Z,99236.19
2022-10-11T17:28:51.390Z,99243.78
2022-10-11T17:31:17.980Z,99250.94
2022-10-11T17:33:44.770Z,99247.16
2022-10-11T17:36:20.415Z,99256.56
2022-10-11T17:38:47.758Z,99255.94
2022-10-11T17:41:14.507Z,99258.91
2022-10-11T17:43:41.062Z,99262.03
2022-10-11T17:46:09.188Z,99279.03
2022-10-11T17:48:37.099Z,99272.66
2022-10-11T17:51:11.369Z,99279.78
2022-10-11T17:53:38.396Z,99284.19
2022-10-11T17:56:07.651Z,99277.38
2022-10-11T17:58:34.382Z,99286.34
2022-10-11T18:01:04.052Z,99287.81
2022-10-11T18:03:31.170Z,99293.97
2022-10-11T18:05:57.709Z,99285.44
2022-10-11T18:08:24.329Z,99287.75
2022-10-11T18:10:50.810Z,99290.00
2022-10-11T18:13:17.603Z,99282.81
2022-10-11T18:15:44.109Z,99296.13
2022-10-11T18:18:11.690Z,99291.00
2022-10-11T18:20:38.264Z,99284.44
2022-10-11T18:23:04.841Z,99290.97
2022-10-11T18:25:33.551Z,99287.25
2022-10-11T18:28:00.049Z,99294.97
2022-10-11T18:30:26.608Z,99301.28
2022-10-11T18:32:53.157Z,99292.47
2022-10-11T18:35:19.677Z,99302.66
2022-10-11T18:37:46.217Z,99314.56
2022-10-11T18:40:12.686Z,99308.44
2022-10-11T18:42:39.201Z,99315.06
2022-10-11T18:45:06.630Z,99318.41
2022-10-11T18:47:33.140Z,99315.47
2022-10-11T18:49:59.670Z,99317.97
2022-10-11T18:52:26.243Z,99316.88
2022-10-11T18:54:52.721Z,99321.78
2022-10-11T18:57:19.340Z,99325.00
2022-10-11T18:59:46.103Z,99329.38
2022-10-11T19:02:12.799Z,99308.97
2022-10-11T19:04:39.589Z,99328.44
2022-10-11T19:07:06.437Z,99330.19
2022-10-11T19:09:32.915Z,99335.84
2022-10-11T19:11:59.486Z,99330.59
2022-10-11T19:14:28.577Z,99336.63
2022-10-11T19:16:56.217Z,99318.91
2022-10-11T19:19:30.882Z,99331.81
2022-10-11T19:21:57.557Z,99340.78
2022-10-11T19:24:26.479Z,99341.50
2022-10-11T19:26:54.703Z,99336.75
2022-10-11T19:29:24.667Z,99331.50
2022-10-11T19:31:56.520Z,99330.84
2022-10-11T19:34:26.814Z,99323.75
2022-10-11T19:36:54.878Z,99335.16
2022-10-11T19:39:22.502Z,99346.78
2022-10-11T19:41:49.327Z,99341.34
2022-10-11T19:44:16.718Z,99340.34
2022-10-11T19:46:51.423Z,99343.91
2022-10-11T19:49:21.495Z,99335.31
2022-10-11T19:51:48.039Z,99344.53
2022-10-11T19:54:15.507Z,99350.63
2022-10-11T19:56:42.787Z,99357.97
2022-10-11T19:59:10.266Z,99359.75
2022-10-11T20:01:37.367Z,99357.34
2022-10-11T20:04:06.382Z,99362.63
2022-10-11T20:06:38.375Z,99358.81
2022-10-11T20:09:29.554Z,99354.88
2022-10-11T20:11:56.119Z,99354.72
2022-10-11T20:14:22.712Z,99353.50
2022-10-11T20:16:50.179Z,99355.81
2022-10-11T20:19:17.198Z,99362.19
2022-10-11T20:21:43.988Z,99360.56
2022-10-11T20:24:10.747Z,99370.75
2022-10-11T20:26:37.423Z,99374.09
2022-10-11T20:29:03.936Z,99369.09
2022-10-11T20:31:33.080Z,99374.88
2022-10-11T20:34:02.122Z,99378.66
2022-10-11T20:36:32.034Z,99381.34
2022-10-11T20:38:59.451Z,99377.25
2022-10-11T20:41:34.098Z,99375.34
2022-10-11T20:44:01.813Z,99385.78
2022-10-11T20:46:33.459Z,99389.31
2022-10-11T20:49:08.307Z,99384.53
2022-10-11T20:51:35.390Z,99386.22
2022-10-11T20:54:02.286Z,99380.72
2022-10-11T20:56:29.709Z,99389.91
2022-10-11T20:58:57.216Z,99391.00
2022-10-11T21:01:27.223Z,99393.28
2022-10-11T21:03:54.148Z,99389.53
2022-10-11T21:06:20.864Z,99394.53
2022-10-11T21:08:47.415Z,99395.94
2022-10-11T21:11:14.411Z,99395.28
2022-10-11T21:13:40.977Z,99378.25
2022-10-11T21:16:11.189Z,99398.03
2022-10-11T21:18:38.052Z,99399.72
2022-10-11T21:21:09.501Z,99392.63
2022-10-11T21:23:36.106Z,99403.03
2022-10-11T21:26:03.989Z,99397.03
2022-10-11T21:28:30.898Z,99393.47
2022-10-11T21:31:18.603Z,99395.34
2022-10-11T21:33:45.542Z,99399.06
2022-10-11T21:36:15.186Z,99405.50
2022-10-11T21:38:42.052Z,99399.00
2022-10-11T21:41:11.532Z,99389.88
2022-10-11T21:43:38.417Z,99403.19
2022-10-11T21:46:11.788Z,99401.38
2022-10-11T21:48:39.164Z,99402.44
2022-10-11T21:51:06.239Z,99395.69
2022-10-11T21:53:33.536Z,99402.16
2022-10-11T21:56:01.077Z,99403.78
2022-10-11T21:58:28.092Z,99398.41
2022-10-11T22:00:54.926Z,99406.75
2022-10-11T22:03:21.452Z,99400.66
2022-10-11T22:05:48.597Z,99393.22
2022-10-11T22:08:15.399Z,99392.03
2022-10-11T22:10:52.914Z,99391.38
2022-10-11T22:13:19.603Z,99383.59
2022-10-11T22:15:46.081Z,99375.00
2022-10-11T22:18:12.606Z,99379.97
2022-10-11T22:20:39.069Z,99383.28
2022-10-11T22:23:05.586Z,99389.13
2022-10-11T22:25:35.294Z,99386.44
2022-10-11T22:28:02.034Z,99382.66
2022-10-11T22:30:29.319Z,99386.22
2022-10-11T22:32:55.879Z,99375.97
2022-10-11T22:35:22.447Z,99383.06
2022-10-11T22:37:50.315Z,99380.78
2022-10-11T22:40:18.051Z,99385.97
2022-10-11T22:42:44.673Z,99372.03
2022-10-11T22:45:11.539Z,99385.53
2022-10-11T22:47:38.376Z,99384.09
2022-10-11T22:50:05.419Z,99382.88
2022-10-11T22:52:32.022Z,99387.03
2022-10-11T22:54:58.520Z,99381.63
2022-10-11T22:57:25.137Z,99379.72
2022-10-11T22:59:51.642Z,99375.34
2022-10-11T23:02:18.222Z,99378.06
2022-10-11T23:04:44.763Z,99386.81
2022-10-11T23:07:11.251Z,99385.16
2022-10-11T23:09:37.761Z,99380.78
2022-10-11T23:12:04.541Z,99377.25
2022-10-11T23:14:31.057Z,99371.19
2022-10-11T23:16:57.567Z,99376.63
2022-10-11T23:19:24.099Z,99379.34
2022-10-11T23:21:50.616Z,99370.75
2022-10-11T23:24:17.147Z,99377.84
2022-10-11T23:26:43.696Z,99385.38
2022-10-11T23:29:10.207Z,99380.81
2022-10-11T23:31:36.696Z,99387.72
2022-10-11T23:34:03.201Z,99380.19
2022-10-11T23:36:29.790Z,99389.59
2022-10-11T23:38:58.174Z,99381.03
2022-10-11T23:41:27.177Z,99381.44
2022-10-11T23:43:53.707Z,99378.09
2022-10-11T23:46:20.604Z,99390.66
2022-10-11T23:48:47.424Z,99379.38
2022-10-11T23:51:14.052Z,99381.47
2022-10-11T23:53:40.565Z,99396.69
2022-10-11T23:56:07.650Z,99391.28
2022-10-11T23:58:34.334Z,99391.06
